sensor_id;sensor_type;location;lat;lon;timestamp;temperature;humidity
13205;DHT22;6667;52.634;9.226;2022-08-11T00:01:44;18.30;99.90
13205;DHT22;6667;52.634;9.226;2022-08-11T00:04:14;18.20;99.90
13205;DHT22;6667;52.634;9.226;2022-08-11T00:06:43;18.20;99.90
13205;DHT22;6667;52.634;9.226;2022-08-11T00:09:11;18.10;99.90
13205;DHT22;6667;52.634;9.226;2022-08-11T00:11:40;18.10;99.90
13205;DHT22;6667;52.634;9.226;2022-08-11T00:14:13;18.10;99.90
13205;DHT22;6667;52.634;9.226;2022-08-11T00:16:41;18.10;99.90
13205;DHT22;6667;52.634;9.226;2022-08-11T00:19:08;18.00;99.90
13205;DHT22;6667;52.634;9.226;2022-08-11T00:21:40;18.00;99.90
13205;DHT22;6667;52.634;9.226;2022-08-11T00:24:08;18.00;99.90
13205;DHT22;6667;52.634;9.226;2022-08-11T00:26:35;17.90;99.90
13205;DHT22;6667;52.634;9.226;2022-08-11T00:29:07;17.90;99.90
13205;DHT22;6667;52.634;9.226;2022-08-11T00:31:34;17.90;99.90
13205;DHT22;6667;52.634;9.226;2022-08-11T00:34:07;17.80;99.90
13205;DHT22;6667;52.634;9.226;2022-08-11T00:36:42;17.80;99.90
13205;DHT22;6667;52.634;9.226;2022-08-11T00:39:11;17.80;99.90
13205;DHT22;6667;52.634;9.226;2022-08-11T00:41:43;17.80;99.90
13205;DHT22;6667;52.634;9.226;2022-08-11T00:44:26;17.70;99.90
13205;DHT22;6667;52.634;9.226;2022-08-11T00:47:04;17.70;99.90
13205;DHT22;6667;52.634;9.226;2022-08-11T00:49:41;17.70;99.90
13205;DHT22;6667;52.634;9.226;2022-08-11T00:52:24;17.60;99.90
13205;DHT22;6667;52.634;9.226;2022-08-11T00:55:06;17.60;99.90
13205;DHT22;6667;52.634;9.226;2022-08-11T00:58:21;17.60;99.90
13205;DHT22;6667;52.634;9.226;2022-08-11T01:01:07;17.50;99.90
13205;DHT22;6667;52.634;9.226;2022-08-11T01:06:46;17.50;99.90
13205;DHT22;6667;52.634;9.226;2022-08-11T01:09:38;17.40;99.90
13205;DHT22;6667;52.634;9.226;2022-08-11T01:12:28;17.40;99.90
13205;DHT22;6667;52.634;9.226;2022-08-11T01:15:32;17.30;99.90
13205;DHT22;6667;52.634;9.226;2022-08-11T01:18:30;17.30;99.90
13205;DHT22;6667;52.634;9.226;2022-08-11T01:21:15;17.20;99.90
13205;DHT22;6667;52.634;9.226;2022-08-11T01:24:25;17.20;99.90
13205;DHT22;6667;52.634;9.226;2022-08-11T01:27:12;17.10;99.90
13205;DHT22;6667;52.634;9.226;2022-08-11T01:30:13;17.10;99.90
13205;DHT22;6667;52.634;9.226;2022-08-11T01:36:30;17.00;99.90
13205;DHT22;6667;52.634;9.226;2022-08-11T01:39:38;17.00;99.90
13205;DHT22;6667;52.634;9.226;2022-08-11T01:45:41;16.80;99.90
13205;DHT22;6667;52.634;9.226;2022-08-11T01:48:15;16.80;99.90
13205;DHT22;6667;52.634;9.226;2022-08-11T01:51:04;16.80;99.90
13205;DHT22;6667;52.634;9.226;2022-08-11T01:53:45;16.70;99.90
13205;DHT22;6667;52.634;9.226;2022-08-11T01:56:28;16.70;99.90
13205;DHT22;6667;52.634;9.226;2022-08-11T01:59:08;16.70;99.90
13205;DHT22;6667;52.634;9.226;2022-08-11T02:01:44;16.60;99.90
13205;DHT22;6667;52.634;9.226;2022-08-11T02:04:19;16.60;99.90
13205;DHT22;6667;52.634;9.226;2022-08-11T02:06:54;16.50;99.90
13205;DHT22;6667;52.634;9.226;2022-08-11T02:09:37;16.50;99.90
13205;DHT22;6667;52.634;9.226;2022-08-11T02:12:15;16.50;99.90
13205;DHT22;6667;52.634;9.226;2022-08-11T02:14:52;16.40;99.90
13205;DHT22;6667;52.634;9.226;2022-08-11T02:17:40;16.40;99.90
13205;DHT22;6667;52.634;9.226;2022-08-11T02:20:18;16.40;99.90
13205;DHT22;6667;52.634;9.226;2022-08-11T02:23:12;16.40;99.90
13205;DHT22;6667;52.634;9.226;2022-08-11T02:26:06;16.40;99.90
13205;DHT22;6667;52.634;9.226;2022-08-11T02:28:41;16.40;99.90
13205;DHT22;6667;52.634;9.226;2022-08-11T02:31:14;16.30;99.90
13205;DHT22;6667;52.634;9.226;2022-08-11T02:34:12;16.30;99.90
13205;DHT22;6667;52.634;9.226;2022-08-11T02:36:51;16.30;99.90
13205;DHT22;6667;52.634;9.226;2022-08-11T02:39:22;16.20;99.90
13205;DHT22;6667;52.634;9.226;2022-08-11T02:42:05;16.20;99.90
13205;DHT22;6667;52.634;9.226;2022-08-11T02:45:00;16.10;99.90
13205;DHT22;6667;52.634;9.226;2022-08-11T02:47:34;16.10;99.90
13205;DHT22;6667;52.634;9.226;2022-08-11T02:50:11;16.10;99.90
13205;DHT22;6667;52.634;9.226;2022-08-11T02:52:45;16.00;99.90
13205;DHT22;6667;52.634;9.226;2022-08-11T02:55:25;16.00;99.90
13205;DHT22;6667;52.634;9.226;2022-08-11T02:58:00;16.00;99.90
13205;DHT22;6667;52.634;9.226;2022-08-11T03:00:29;16.00;99.90
13205;DHT22;6667;52.634;9.226;2022-08-11T03:03:09;16.00;99.90
13205;DHT22;6667;52.634;9.226;2022-08-11T03:05:50;15.90;99.90
13205;DHT22;6667;52.634;9.226;2022-08-11T03:08:30;15.90;99.90
13205;DHT22;6667;52.634;9.226;2022-08-11T03:11:09;15.80;99.90
13205;DHT22;6667;52.634;9.226;2022-08-11T03:14:08;15.70;99.90
13205;DHT22;6667;52.634;9.226;2022-08-11T03:16:57;15.60;99.90
13205;DHT22;6667;52.634;9.226;2022-08-11T03:19:32;15.70;99.90
13205;DHT22;6667;52.634;9.226;2022-08-11T03:22:04;15.70;99.90
13205;DHT22;6667;52.634;9.226;2022-08-11T03:24:42;15.70;99.90
13205;DHT22;6667;52.634;9.226;2022-08-11T03:27:24;15.60;99.90
13205;DHT22;6667;52.634;9.226;2022-08-11T03:30:02;15.60;99.90
13205;DHT22;6667;52.634;9.226;2022-08-11T03:32:34;15.60;99.90
13205;DHT22;6667;52.634;9.226;2022-08-11T03:35:04;15.50;99.90
13205;DHT22;6667;52.634;9.226;2022-08-11T03:37:39;15.50;99.90
13205;DHT22;6667;52.634;9.226;2022-08-11T03:40:31;15.40;99.90
13205;DHT22;6667;52.634;9.226;2022-08-11T03:43:23;15.50;99.90
13205;DHT22;6667;52.634;9.226;2022-08-11T03:46:01;15.40;99.90
13205;DHT22;6667;52.634;9.226;2022-08-11T03:48:39;15.40;99.90
13205;DHT22;6667;52.634;9.226;2022-08-11T03:51:14;15.30;99.90
13205;DHT22;6667;52.634;9.226;2022-08-11T03:54:00;15.30;99.90
13205;DHT22;6667;52.634;9.226;2022-08-11T03:56:52;15.30;99.90
13205;DHT22;6667;52.634;9.226;2022-08-11T04:00:03;15.30;99.90
13205;DHT22;6667;52.634;9.226;2022-08-11T04:03:07;15.20;99.90
13205;DHT22;6667;52.634;9.226;2022-08-11T04:09:38;15.20;99.90
13205;DHT22;6667;52.634;9.226;2022-08-11T04:12:23;15.20;99.90
13205;DHT22;6667;52.634;9.226;2022-08-11T04:15:18;15.10;99.90
13205;DHT22;6667;52.634;9.226;2022-08-11T04:18:41;15.20;99.90
13205;DHT22;6667;52.634;9.226;2022-08-11T04:21:42;15.10;99.90
13205;DHT22;6667;52.634;9.226;2022-08-11T04:24:43;15.10;99.90
13205;DHT22;6667;52.634;9.226;2022-08-11T04:27:44;15.10;99.90
13205;DHT22;6667;52.634;9.226;2022-08-11T04:30:17;15.10;99.90
13205;DHT22;6667;52.634;9.226;2022-08-11T04:33:16;15.00;99.90
13205;DHT22;6667;52.634;9.226;2022-08-11T04:36:04;15.10;99.90
13205;DHT22;6667;52.634;9.226;2022-08-11T04:38:55;15.10;99.90
13205;DHT22;6667;52.634;9.226;2022-08-11T04:42:05;15.10;99.90
13205;DHT22;6667;52.634;9.226;2022-08-11T04:45:07;15.10;99.90
13205;DHT22;6667;52.634;9.226;2022-08-11T04:47:54;15.10;99.90
13205;DHT22;6667;52.634;9.226;2022-08-11T04:51:04;15.10;99.90
13205;DHT22;6667;52.634;9.226;2022-08-11T04:53:59;15.10;99.90
13205;DHT22;6667;52.634;9.226;2022-08-11T04:56:47;15.10;99.90
13205;DHT22;6667;52.634;9.226;2022-08-11T04:59:52;15.20;99.90
13205;DHT22;6667;52.634;9.226;2022-08-11T05:03:32;15.20;99.90
13205;DHT22;6667;52.634;9.226;2022-08-11T05:06:19;15.20;99.90
13205;DHT22;6667;52.634;9.226;2022-08-11T05:09:07;15.30;99.90
13205;DHT22;6667;52.634;9.226;2022-08-11T05:12:11;15.40;99.90
13205;DHT22;6667;52.634;9.226;2022-08-11T05:14:48;15.40;99.90
13205;DHT22;6667;52.634;9.226;2022-08-11T05:17:37;15.50;99.90
13205;DHT22;6667;52.634;9.226;2022-08-11T05:20:46;15.60;99.90
13205;DHT22;6667;52.634;9.226;2022-08-11T05:23:35;15.70;99.90
13205;DHT22;6667;52.634;9.226;2022-08-11T05:26:41;15.80;99.90
13205;DHT22;6667;52.634;9.226;2022-08-11T05:29:38;15.90;99.90
13205;DHT22;6667;52.634;9.226;2022-08-11T05:32:23;16.10;99.90
13205;DHT22;6667;52.634;9.226;2022-08-11T05:35:09;16.20;99.90
13205;DHT22;6667;52.634;9.226;2022-08-11T05:37:41;16.40;99.90
13205;DHT22;6667;52.634;9.226;2022-08-11T05:40:24;16.60;99.90
13205;DHT22;6667;52.634;9.226;2022-08-11T05:43:12;16.80;99.90
13205;DHT22;6667;52.634;9.226;2022-08-11T05:45:58;17.10;99.90
13205;DHT22;6667;52.634;9.226;2022-08-11T05:48:44;17.20;99.90
13205;DHT22;6667;52.634;9.226;2022-08-11T05:51:33;17.50;99.90
13205;DHT22;6667;52.634;9.226;2022-08-11T05:54:18;17.70;99.90
13205;DHT22;6667;52.634;9.226;2022-08-11T05:57:05;17.90;99.90
13205;DHT22;6667;52.634;9.226;2022-08-11T05:59:33;18.20;99.90
13205;DHT22;6667;52.634;9.226;2022-08-11T06:02:01;18.50;99.90
13205;DHT22;6667;52.634;9.226;2022-08-11T06:04:29;18.90;99.90
13205;DHT22;6667;52.634;9.226;2022-08-11T06:06:58;19.20;99.90
13205;DHT22;6667;52.634;9.226;2022-08-11T06:09:31;19.50;99.90
13205;DHT22;6667;52.634;9.226;2022-08-11T06:12:00;20.00;99.90
13205;DHT22;6667;52.634;9.226;2022-08-11T06:14:30;20.30;99.90
13205;DHT22;6667;52.634;9.226;2022-08-11T06:17:00;20.70;99.90
13205;DHT22;6667;52.634;9.226;2022-08-11T06:19:33;21.00;99.90
13205;DHT22;6667;52.634;9.226;2022-08-11T06:22:02;21.30;99.90
13205;DHT22;6667;52.634;9.226;2022-08-11T06:24:29;21.50;99.90
13205;DHT22;6667;52.634;9.226;2022-08-11T06:26:58;21.90;99.90
13205;DHT22;6667;52.634;9.226;2022-08-11T06:29:26;22.30;99.90
13205;DHT22;6667;52.634;9.226;2022-08-11T06:31:57;22.60;99.90
13205;DHT22;6667;52.634;9.226;2022-08-11T06:34:36;23.10;99.90
13205;DHT22;6667;52.634;9.226;2022-08-11T06:37:15;23.60;99.90
13205;DHT22;6667;52.634;9.226;2022-08-11T06:39:48;23.90;99.90
13205;DHT22;6667;52.634;9.226;2022-08-11T06:42:33;24.20;99.90
13205;DHT22;6667;52.634;9.226;2022-08-11T06:45:08;24.80;99.90
13205;DHT22;6667;52.634;9.226;2022-08-11T06:47:44;25.00;99.90
13205;DHT22;6667;52.634;9.226;2022-08-11T06:50:15;25.10;99.90
13205;DHT22;6667;52.634;9.226;2022-08-11T06:53:02;25.20;99.90
13205;DHT22;6667;52.634;9.226;2022-08-11T06:55:30;25.70;99.90
13205;DHT22;6667;52.634;9.226;2022-08-11T06:58:20;25.90;99.90
13205;DHT22;6667;52.634;9.226;2022-08-11T07:01:07;26.30;99.90
13205;DHT22;6667;52.634;9.226;2022-08-11T07:03:38;26.30;99.90
13205;DHT22;6667;52.634;9.226;2022-08-11T07:06:24;26.00;99.90
13205;DHT22;6667;52.634;9.226;2022-08-11T07:09:14;26.40;99.90
13205;DHT22;6667;52.634;9.226;2022-08-11T07:12:36;27.00;99.90
13205;DHT22;6667;52.634;9.226;2022-08-11T07:15:24;27.10;99.90
13205;DHT22;6667;52.634;9.226;2022-08-11T07:18:13;27.70;99.90
13205;DHT22;6667;52.634;9.226;2022-08-11T07:21:09;27.70;99.90
13205;DHT22;6667;52.634;9.226;2022-08-11T07:23:55;28.10;99.90
13205;DHT22;6667;52.634;9.226;2022-08-11T07:26:46;28.50;99.90
13205;DHT22;6667;52.634;9.226;2022-08-11T07:29:32;29.20;99.90
13205;DHT22;6667;52.634;9.226;2022-08-11T07:32:08;29.40;99.90
13205;DHT22;6667;52.634;9.226;2022-08-11T07:34:41;29.70;99.90
13205;DHT22;6667;52.634;9.226;2022-08-11T07:37:15;29.90;99.90
13205;DHT22;6667;52.634;9.226;2022-08-11T07:39:44;30.20;99.90
13205;DHT22;6667;52.634;9.226;2022-08-11T07:42:14;30.70;99.90
13205;DHT22;6667;52.634;9.226;2022-08-11T07:44:41;30.80;99.90
13205;DHT22;6667;52.634;9.226;2022-08-11T07:47:23;30.60;99.90
13205;DHT22;6667;52.634;9.226;2022-08-11T07:50:08;30.50;99.90
13205;DHT22;6667;52.634;9.226;2022-08-11T07:52:54;30.90;99.90
13205;DHT22;6667;52.634;9.226;2022-08-11T07:55:22;31.40;99.90
13205;DHT22;6667;52.634;9.226;2022-08-11T07:57:50;31.60;99.90
13205;DHT22;6667;52.634;9.226;2022-08-11T08:00:36;32.00;99.90
13205;DHT22;6667;52.634;9.226;2022-08-11T08:03:21;32.80;99.90
13205;DHT22;6667;52.634;9.226;2022-08-11T08:06:06;33.00;99.90
13205;DHT22;6667;52.634;9.226;2022-08-11T08:08:54;33.50;99.90
13205;DHT22;6667;52.634;9.226;2022-08-11T08:11:40;33.60;99.90
13205;DHT22;6667;52.634;9.226;2022-08-11T08:14:25;33.90;99.90
13205;DHT22;6667;52.634;9.226;2022-08-11T08:17:09;33.30;99.90
13205;DHT22;6667;52.634;9.226;2022-08-11T08:19:54;33.40;99.90
13205;DHT22;6667;52.634;9.226;2022-08-11T08:22:21;34.20;99.90
13205;DHT22;6667;52.634;9.226;2022-08-11T08:24:50;34.40;99.90
13205;DHT22;6667;52.634;9.226;2022-08-11T08:27:17;34.50;99.90
13205;DHT22;6667;52.634;9.226;2022-08-11T08:29:46;34.20;99.90
13205;DHT22;6667;52.634;9.226;2022-08-11T08:32:31;34.10;99.90
13205;DHT22;6667;52.634;9.226;2022-08-11T08:35:00;34.20;99.90
13205;DHT22;6667;52.634;9.226;2022-08-11T08:37:28;34.20;99.90
13205;DHT22;6667;52.634;9.226;2022-08-11T08:39:56;34.40;99.90
13205;DHT22;6667;52.634;9.226;2022-08-11T08:42:25;34.90;99.90
13205;DHT22;6667;52.634;9.226;2022-08-11T08:44:57;34.80;99.90
13205;DHT22;6667;52.634;9.226;2022-08-11T08:47:25;34.80;99.90
13205;DHT22;6667;52.634;9.226;2022-08-11T08:49:59;34.90;99.90
13205;DHT22;6667;52.634;9.226;2022-08-11T08:52:29;34.80;99.90
13205;DHT22;6667;52.634;9.226;2022-08-11T08:55:01;35.10;99.90
13205;DHT22;6667;52.634;9.226;2022-08-11T08:57:31;35.20;99.90
13205;DHT22;6667;52.634;9.226;2022-08-11T08:59:58;34.90;99.90
13205;DHT22;6667;52.634;9.226;2022-08-11T09:02:26;34.70;99.90
13205;DHT22;6667;52.634;9.226;2022-08-11T09:04:53;35.80;99.90
13205;DHT22;6667;52.634;9.226;2022-08-11T09:07:22;35.60;99.90
13205;DHT22;6667;52.634;9.226;2022-08-11T09:09:53;35.30;99.90
13205;DHT22;6667;52.634;9.226;2022-08-11T09:12:26;35.40;99.90
13205;DHT22;6667;52.634;9.226;2022-08-11T09:14:53;34.90;99.90
13205;DHT22;6667;52.634;9.226;2022-08-11T09:17:30;35.80;99.90
13205;DHT22;6667;52.634;9.226;2022-08-11T09:20:01;36.10;99.90
13205;DHT22;6667;52.634;9.226;2022-08-11T09:22:31;35.80;99.90
13205;DHT22;6667;52.634;9.226;2022-08-11T09:25:15;36.00;99.90
13205;DHT22;6667;52.634;9.226;2022-08-11T09:28:02;35.00;99.90
13205;DHT22;6667;52.634;9.226;2022-08-11T09:30:30;35.10;99.90
13205;DHT22;6667;52.634;9.226;2022-08-11T09:33:00;35.30;99.90
13205;DHT22;6667;52.634;9.226;2022-08-11T09:35:32;35.60;99.90
13205;DHT22;6667;52.634;9.226;2022-08-11T09:38:03;34.70;99.90
13205;DHT22;6667;52.634;9.226;2022-08-11T09:40:48;35.20;99.90
13205;DHT22;6667;52.634;9.226;2022-08-11T09:43:18;35.00;99.90
13205;DHT22;6667;52.634;9.226;2022-08-11T09:46:04;35.60;99.90
13205;DHT22;6667;52.634;9.226;2022-08-11T09:48:36;34.80;99.90
13205;DHT22;6667;52.634;9.226;2022-08-11T09:51:04;34.70;99.90
13205;DHT22;6667;52.634;9.226;2022-08-11T09:53:36;34.10;99.90
13205;DHT22;6667;52.634;9.226;2022-08-11T09:56:04;35.30;99.90
13205;DHT22;6667;52.634;9.226;2022-08-11T09:58:47;36.30;99.90
13205;DHT22;6667;52.634;9.226;2022-08-11T10:01:15;35.80;99.90
13205;DHT22;6667;52.634;9.226;2022-08-11T10:03:54;36.10;99.90
13205;DHT22;6667;52.634;9.226;2022-08-11T10:06:23;35.50;99.90
13205;DHT22;6667;52.634;9.226;2022-08-11T10:09:08;35.80;99.90
13205;DHT22;6667;52.634;9.226;2022-08-11T10:11:35;36.20;99.90
13205;DHT22;6667;52.634;9.226;2022-08-11T10:14:06;36.50;99.90
13205;DHT22;6667;52.634;9.226;2022-08-11T10:16:50;37.10;99.90
13205;DHT22;6667;52.634;9.226;2022-08-11T10:19:19;37.40;99.90
13205;DHT22;6667;52.634;9.226;2022-08-11T10:21:50;37.30;99.90
13205;DHT22;6667;52.634;9.226;2022-08-11T10:24:37;37.20;99.90
13205;DHT22;6667;52.634;9.226;2022-08-11T10:27:25;37.80;99.90
13205;DHT22;6667;52.634;9.226;2022-08-11T10:29:54;37.80;99.90
13205;DHT22;6667;52.634;9.226;2022-08-11T10:32:38;37.40;99.90
13205;DHT22;6667;52.634;9.226;2022-08-11T10:35:23;37.40;99.90
13205;DHT22;6667;52.634;9.226;2022-08-11T10:37:51;37.80;99.90
13205;DHT22;6667;52.634;9.226;2022-08-11T10:40:21;39.00;99.90
13205;DHT22;6667;52.634;9.226;2022-08-11T10:42:49;38.70;99.90
13205;DHT22;6667;52.634;9.226;2022-08-11T10:45:35;39.20;99.90
13205;DHT22;6667;52.634;9.226;2022-08-11T10:48:20;38.40;99.90
13205;DHT22;6667;52.634;9.226;2022-08-11T10:50:48;37.70;99.90
13205;DHT22;6667;52.634;9.226;2022-08-11T10:53:33;36.40;99.90
13205;DHT22;6667;52.634;9.226;2022-08-11T10:56:19;36.80;99.90
13205;DHT22;6667;52.634;9.226;2022-08-11T10:59:04;36.00;99.90
13205;DHT22;6667;52.634;9.226;2022-08-11T11:01:37;35.60;99.90
13205;DHT22;6667;52.634;9.226;2022-08-11T11:04:07;36.10;99.90
13205;DHT22;6667;52.634;9.226;2022-08-11T11:06:42;35.90;99.90
13205;DHT22;6667;52.634;9.226;2022-08-11T11:09:14;36.00;99.90
13205;DHT22;6667;52.634;9.226;2022-08-11T11:11:44;36.00;99.90
13205;DHT22;6667;52.634;9.226;2022-08-11T11:14:40;36.50;99.90
13205;DHT22;6667;52.634;9.226;2022-08-11T11:17:28;36.40;99.90
13205;DHT22;6667;52.634;9.226;2022-08-11T11:20:18;37.00;99.90
13205;DHT22;6667;52.634;9.226;2022-08-11T11:22:50;37.60;99.90
13205;DHT22;6667;52.634;9.226;2022-08-11T11:25:29;36.90;99.90
13205;DHT22;6667;52.634;9.226;2022-08-11T11:28:16;36.90;99.90
13205;DHT22;6667;52.634;9.226;2022-08-11T11:30:53;37.50;99.90
13205;DHT22;6667;52.634;9.226;2022-08-11T11:33:29;38.20;99.90
13205;DHT22;6667;52.634;9.226;2022-08-11T11:36:10;38.30;99.90
13205;DHT22;6667;52.634;9.226;2022-08-11T11:38:39;38.80;99.90
13205;DHT22;6667;52.634;9.226;2022-08-11T11:41:07;37.70;99.90
13205;DHT22;6667;52.634;9.226;2022-08-11T11:43:53;36.90;99.90
13205;DHT22;6667;52.634;9.226;2022-08-11T11:46:20;37.60;99.90
13205;DHT22;6667;52.634;9.226;2022-08-11T11:48:48;36.60;99.90
13205;DHT22;6667;52.634;9.226;2022-08-11T11:51:15;36.80;99.90
13205;DHT22;6667;52.634;9.226;2022-08-11T11:53:42;37.20;99.90
13205;DHT22;6667;52.634;9.226;2022-08-11T11:56:10;36.60;99.90
13205;DHT22;6667;52.634;9.226;2022-08-11T11:58:38;36.70;99.90
13205;DHT22;6667;52.634;9.226;2022-08-11T12:01:23;37.20;99.90
13205;DHT22;6667;52.634;9.226;2022-08-11T12:03:53;35.10;99.90
13205;DHT22;6667;52.634;9.226;2022-08-11T12:06:22;35.90;99.90
13205;DHT22;6667;52.634;9.226;2022-08-11T12:08:51;36.60;99.90
13205;DHT22;6667;52.634;9.226;2022-08-11T12:11:20;35.20;99.90
13205;DHT22;6667;52.634;9.226;2022-08-11T12:14:16;35.20;99.90
13205;DHT22;6667;52.634;9.226;2022-08-11T12:16:44;34.80;99.90
13205;DHT22;6667;52.634;9.226;2022-08-11T12:19:14;34.40;99.90
13205;DHT22;6667;52.634;9.226;2022-08-11T12:21:42;34.30;99.90
13205;DHT22;6667;52.634;9.226;2022-08-11T12:24:23;34.30;99.90
13205;DHT22;6667;52.634;9.226;2022-08-11T12:27:08;34.90;99.90
13205;DHT22;6667;52.634;9.226;2022-08-11T12:29:50;35.10;99.90
13205;DHT22;6667;52.634;9.226;2022-08-11T12:32:17;35.00;99.90
13205;DHT22;6667;52.634;9.226;2022-08-11T12:34:46;35.40;99.90
13205;DHT22;6667;52.634;9.226;2022-08-11T12:37:13;36.20;99.90
13205;DHT22;6667;52.634;9.226;2022-08-11T12:39:45;36.30;99.90
13205;DHT22;6667;52.634;9.226;2022-08-11T12:42:31;36.00;99.90
13205;DHT22;6667;52.634;9.226;2022-08-11T12:45:16;36.70;99.90
13205;DHT22;6667;52.634;9.226;2022-08-11T12:48:06;37.20;99.90
13205;DHT22;6667;52.634;9.226;2022-08-11T12:50:55;37.20;99.90
13205;DHT22;6667;52.634;9.226;2022-08-11T12:53:45;37.10;99.90
13205;DHT22;6667;52.634;9.226;2022-08-11T12:56:15;37.30;99.90
13205;DHT22;6667;52.634;9.226;2022-08-11T12:59:02;36.50;99.90
13205;DHT22;6667;52.634;9.226;2022-08-11T13:01:48;35.80;99.90
13205;DHT22;6667;52.634;9.226;2022-08-11T13:04:33;35.80;99.90
13205;DHT22;6667;52.634;9.226;2022-08-11T13:07:19;36.50;99.90
13205;DHT22;6667;52.634;9.226;2022-08-11T13:09:46;36.70;99.90
13205;DHT22;6667;52.634;9.226;2022-08-11T13:12:14;36.20;99.90
13205;DHT22;6667;52.634;9.226;2022-08-11T13:14:59;35.30;99.90
13205;DHT22;6667;52.634;9.226;2022-08-11T13:17:28;35.90;99.90
13205;DHT22;6667;52.634;9.226;2022-08-11T13:19:56;36.00;99.90
13205;DHT22;6667;52.634;9.226;2022-08-11T13:22:25;36.20;99.90
13205;DHT22;6667;52.634;9.226;2022-08-11T13:24:53;36.60;99.90
13205;DHT22;6667;52.634;9.226;2022-08-11T13:27:21;36.20;99.90
13205;DHT22;6667;52.634;9.226;2022-08-11T13:29:49;35.70;99.90
13205;DHT22;6667;52.634;9.226;2022-08-11T13:32:37;36.20;99.90
13205;DHT22;6667;52.634;9.226;2022-08-11T13:35:06;35.90;99.90
13205;DHT22;6667;52.634;9.226;2022-08-11T13:37:34;35.70;99.90
13205;DHT22;6667;52.634;9.226;2022-08-11T13:40:01;35.60;99.90
13205;DHT22;6667;52.634;9.226;2022-08-11T13:42:28;36.00;99.90
13205;DHT22;6667;52.634;9.226;2022-08-11T13:44:55;36.60;99.90
13205;DHT22;6667;52.634;9.226;2022-08-11T13:47:23;36.80;99.90
13205;DHT22;6667;52.634;9.226;2022-08-11T13:49:51;37.00;99.90
13205;DHT22;6667;52.634;9.226;2022-08-11T13:52:19;37.20;99.90
13205;DHT22;6667;52.634;9.226;2022-08-11T13:54:48;36.70;99.90
13205;DHT22;6667;52.634;9.226;2022-08-11T13:57:18;36.00;99.90
13205;DHT22;6667;52.634;9.226;2022-08-11T13:59:45;35.50;99.90
13205;DHT22;6667;52.634;9.226;2022-08-11T14:02:14;35.00;99.90
13205;DHT22;6667;52.634;9.226;2022-08-11T14:04:44;35.00;99.90
13205;DHT22;6667;52.634;9.226;2022-08-11T14:07:16;35.40;99.90
13205;DHT22;6667;52.634;9.226;2022-08-11T14:09:44;35.40;99.90
13205;DHT22;6667;52.634;9.226;2022-08-11T14:12:15;35.20;99.90
13205;DHT22;6667;52.634;9.226;2022-08-11T14:15:03;34.70;99.90
13205;DHT22;6667;52.634;9.226;2022-08-11T14:17:32;34.70;99.90
13205;DHT22;6667;52.634;9.226;2022-08-11T14:20:03;34.30;99.90
13205;DHT22;6667;52.634;9.226;2022-08-11T14:22:33;35.00;99.90
13205;DHT22;6667;52.634;9.226;2022-08-11T14:25:00;35.00;99.90
13205;DHT22;6667;52.634;9.226;2022-08-11T14:27:28;34.80;99.90
13205;DHT22;6667;52.634;9.226;2022-08-11T14:29:56;35.00;99.90
13205;DHT22;6667;52.634;9.226;2022-08-11T14:32:24;34.60;99.90
13205;DHT22;6667;52.634;9.226;2022-08-11T14:34:51;34.10;99.90
13205;DHT22;6667;52.634;9.226;2022-08-11T14:37:20;33.40;99.90
13205;DHT22;6667;52.634;9.226;2022-08-11T14:39:50;32.50;99.90
13205;DHT22;6667;52.634;9.226;2022-08-11T14:42:19;32.40;99.90
13205;DHT22;6667;52.634;9.226;2022-08-11T14:45:08;32.90;99.90
13205;DHT22;6667;52.634;9.226;2022-08-11T14:48:08;33.50;99.90
13205;DHT22;6667;52.634;9.226;2022-08-11T14:50:35;33.80;99.90
13205;DHT22;6667;52.634;9.226;2022-08-11T14:53:04;34.00;99.90
13205;DHT22;6667;52.634;9.226;2022-08-11T14:55:34;33.60;99.90
13205;DHT22;6667;52.634;9.226;2022-08-11T14:58:22;32.90;99.90
13205;DHT22;6667;52.634;9.226;2022-08-11T15:00:52;32.80;99.90
13205;DHT22;6667;52.634;9.226;2022-08-11T15:03:20;32.90;99.90
13205;DHT22;6667;52.634;9.226;2022-08-11T15:05:48;32.40;99.90
13205;DHT22;6667;52.634;9.226;2022-08-11T15:08:17;32.70;99.90
13205;DHT22;6667;52.634;9.226;2022-08-11T15:10:46;32.60;99.90
13205;DHT22;6667;52.634;9.226;2022-08-11T15:13:15;32.70;99.90
13205;DHT22;6667;52.634;9.226;2022-08-11T15:15:43;32.50;99.90
13205;DHT22;6667;52.634;9.226;2022-08-11T15:18:30;32.30;99.90
13205;DHT22;6667;52.634;9.226;2022-08-11T15:20:57;31.50;99.90
13205;DHT22;6667;52.634;9.226;2022-08-11T15:23:41;31.60;99.90
13205;DHT22;6667;52.634;9.226;2022-08-11T15:26:31;31.80;99.90
13205;DHT22;6667;52.634;9.226;2022-08-11T15:29:20;31.70;99.90
13205;DHT22;6667;52.634;9.226;2022-08-11T15:32:07;31.70;99.90
13205;DHT22;6667;52.634;9.226;2022-08-11T15:34:57;31.30;99.90
13205;DHT22;6667;52.634;9.226;2022-08-11T15:37:43;31.30;99.90
13205;DHT22;6667;52.634;9.226;2022-08-11T15:40:14;31.40;99.90
13205;DHT22;6667;52.634;9.226;2022-08-11T15:43:10;31.50;99.90
13205;DHT22;6667;52.634;9.226;2022-08-11T15:45:57;31.50;99.90
13205;DHT22;6667;52.634;9.226;2022-08-11T15:48:33;31.30;99.90
13205;DHT22;6667;52.634;9.226;2022-08-11T15:51:06;31.30;99.90
13205;DHT22;6667;52.634;9.226;2022-08-11T15:53:38;31.20;99.90
13205;DHT22;6667;52.634;9.226;2022-08-11T15:56:06;31.30;99.90
13205;DHT22;6667;52.634;9.226;2022-08-11T15:58:38;31.30;99.90
13205;DHT22;6667;52.634;9.226;2022-08-11T16:01:24;31.10;99.90
13205;DHT22;6667;52.634;9.226;2022-08-11T16:04:12;30.90;99.90
13205;DHT22;6667;52.634;9.226;2022-08-11T16:07:00;30.90;99.90
13205;DHT22;6667;52.634;9.226;2022-08-11T16:09:30;31.00;99.90
13205;DHT22;6667;52.634;9.226;2022-08-11T16:12:01;31.10;99.90
13205;DHT22;6667;52.634;9.226;2022-08-11T16:14:32;31.10;99.90
13205;DHT22;6667;52.634;9.226;2022-08-11T16:17:18;30.80;99.90
13205;DHT22;6667;52.634;9.226;2022-08-11T16:19:49;30.80;99.90
13205;DHT22;6667;52.634;9.226;2022-08-11T16:22:22;30.80;99.90
13205;DHT22;6667;52.634;9.226;2022-08-11T16:24:57;30.80;99.90
13205;DHT22;6667;52.634;9.226;2022-08-11T16:27:26;30.80;99.90
13205;DHT22;6667;52.634;9.226;2022-08-11T16:29:54;30.60;99.90
13205;DHT22;6667;52.634;9.226;2022-08-11T16:32:22;30.50;99.90
13205;DHT22;6667;52.634;9.226;2022-08-11T16:34:55;30.60;99.90
13205;DHT22;6667;52.634;9.226;2022-08-11T16:37:42;30.40;99.90
13205;DHT22;6667;52.634;9.226;2022-08-11T16:40:42;30.40;99.90
13205;DHT22;6667;52.634;9.226;2022-08-11T16:43:14;30.40;99.90
13205;DHT22;6667;52.634;9.226;2022-08-11T16:46:02;30.30;99.90
13205;DHT22;6667;52.634;9.226;2022-08-11T16:48:48;30.20;99.90
13205;DHT22;6667;52.634;9.226;2022-08-11T16:51:15;30.20;99.90
13205;DHT22;6667;52.634;9.226;2022-08-11T16:53:48;30.20;99.90
13205;DHT22;6667;52.634;9.226;2022-08-11T16:56:18;30.10;99.90
13205;DHT22;6667;52.634;9.226;2022-08-11T16:58:49;30.00;99.90
13205;DHT22;6667;52.634;9.226;2022-08-11T17:01:35;30.00;99.90
13205;DHT22;6667;52.634;9.226;2022-08-11T17:04:08;30.00;99.90
13205;DHT22;6667;52.634;9.226;2022-08-11T17:06:56;29.90;99.90
13205;DHT22;6667;52.634;9.226;2022-08-11T17:09:57;29.80;99.90
13205;DHT22;6667;52.634;9.226;2022-08-11T17:12:43;29.80;99.90